Time;durP1;ratioP1;P1;durP2;ratioP2;P2;SDS_P1;SDS_P2;PMS_P1;PMS_P2;Temp;Humidity;BMP_temperature;BMP_pressure;BME280_temperature;BME280_humidity;BME280_pressure;Samples;Min_cycle;Max_cycle;Signal;HPM_P1;HPM_P2
2021/11/20 00:00:34;;;;;;;69.70;35.47;;;;;;;6.71;100.00;98052.13;5043159;28;20537;-83
2021/11/20 00:03:00;;;;;;;66.32;33.08;;;;;;;6.79;100.00;98055.38;5036267;28;20127;-84
2021/11/20 00:05:30;;;;;;;68.43;34.85;;;;;;;6.71;100.00;98038.84;5036630;28;20158;-83
2021/11/20 00:07:56;;;;;;;67.35;34.53;;;;;;;6.72;100.00;98047.69;5053261;28;20036;-83
2021/11/20 00:10:25;;;;;;;66.03;33.80;;;;;;;6.62;100.00;98047.16;5036413;28;20503;-83
2021/11/20 00:12:52;;;;;;;66.57;33.88;;;;;;;6.51;100.00;98042.28;5036532;28;20033;-83
2021/11/20 00:15:21;;;;;;;68.22;34.10;;;;;;;6.49;100.00;98046.75;5036763;28;20035;-84
2021/11/20 00:17:48;;;;;;;66.07;34.53;;;;;;;6.46;100.00;98046.03;5036497;28;20478;-83
2021/11/20 00:20:16;;;;;;;81.32;39.88;;;;;;;6.41;100.00;98042.66;5036343;28;20029;-84
2021/11/20 00:22:43;;;;;;;90.22;45.90;;;;;;;6.30;100.00;98028.94;5049774;28;20031;-83
2021/11/20 00:25:27;;;;;;;84.88;41.67;;;;;;;6.11;100.00;98019.91;5046022;28;20115;-83
2021/11/20 00:27:55;;;;;;;82.53;40.55;;;;;;;6.19;100.00;98047.91;5037172;28;20569;-83
2021/11/20 00:30:25;;;;;;;81.07;41.00;;;;;;;6.06;100.00;98035.97;5028295;28;20104;-84
2021/11/20 00:32:56;;;;;;;68.45;37.65;;;;;;;6.24;100.00;98055.72;5036503;28;20059;-83
2021/11/20 00:35:26;;;;;;;71.97;33.95;;;;;;;6.19;100.00;98050.56;5057940;28;20124;-83
2021/11/20 00:37:52;;;;;;;54.40;30.52;;;;;;;6.24;100.00;98058.38;5050127;28;20409;-83
2021/11/20 00:40:23;;;;;;;67.25;34.72;;;;;;;6.27;100.00;98047.63;5060828;28;20040;-84
2021/11/20 00:42:48;;;;;;;66.45;35.25;;;;;;;6.27;100.00;98045.84;5036443;28;20025;-83
2021/11/20 00:45:14;;;;;;;62.50;32.75;;;;;;;6.22;100.00;98030.97;5035863;28;20067;-83
2021/11/20 00:47:40;;;;;;;61.38;30.65;;;;;;;6.27;100.00;98050.28;5036679;28;20510;-83
2021/11/20 00:50:07;;;;;;;63.53;31.98;;;;;;;6.19;100.00;98053.22;5033571;28;20028;-84
2021/11/20 00:52:33;;;;;;;63.53;31.27;;;;;;;6.14;100.00;98033.94;5036279;28;20119;-84
2021/11/20 00:54:59;;;;;;;50.95;28.08;;;;;;;6.29;100.00;98043.13;5033251;28;20108;-84
2021/11/20 00:57:25;;;;;;;47.85;24.35;;;;;;;6.24;100.00;98034.47;5036068;28;20024;-84
2021/11/20 00:59:50;;;;;;;47.95;25.38;;;;;;;6.28;100.00;98030.75;5036493;28;20373;-84
2021/11/20 01:02:16;;;;;;;54.90;28.75;;;;;;;6.24;100.00;98029.16;5053018;28;20024;-84
2021/11/20 01:04:42;;;;;;;47.92;27.95;;;;;;;6.29;100.00;98021.88;5033092;28;20420;-83
2021/11/20 01:07:08;;;;;;;51.60;28.08;;;;;;;6.26;100.00;98027.28;5033680;28;20480;-84
2021/11/20 01:09:38;;;;;;;59.25;28.15;;;;;;;6.13;100.00;98020.69;5036361;28;20146;-83
2021/11/20 01:12:12;;;;;;;47.97;25.98;;;;;;;5.99;100.00;98006.16;5039746;28;20059;-84
2021/11/20 01:14:40;;;;;;;48.40;25.90;;;;;;;5.89;100.00;98017.16;5040129;28;20040;-83
2021/11/20 01:17:08;;;;;;;44.75;24.25;;;;;;;5.91;100.00;98025.91;5056550;28;20484;-83
2021/11/20 01:19:34;;;;;;;50.47;26.17;;;;;;;5.86;100.00;98011.94;5039799;28;20059;-83
2021/11/20 01:22:02;;;;;;;47.70;26.30;;;;;;;5.97;100.00;98017.72;5056479;28;20557;-83
2021/11/20 01:24:27;;;;;;;47.00;26.17;;;;;;;5.98;100.00;98009.72;5039686;28;20422;-83
2021/11/20 01:26:53;;;;;;;46.72;24.63;;;;;;;6.04;100.00;98011.28;5039672;28;20052;-83
2021/11/20 01:29:20;;;;;;;50.80;24.42;;;;;;;6.02;100.00;98005.19;5049607;28;20115;-84
2021/11/20 01:31:50;;;;;;;42.78;23.92;;;;;;;5.97;100.00;98005.31;5046235;28;20028;-84
2021/11/20 01:34:17;;;;;;;49.00;24.70;;;;;;;6.04;100.00;98007.75;5039877;28;20035;-83
2021/11/20 01:36:44;;;;;;;42.75;23.95;;;;;;;5.97;100.00;97999.16;5039712;28;20035;-84
2021/11/20 01:39:13;;;;;;;45.60;24.45;;;;;;;5.98;100.00;98000.88;5039536;28;20029;-83
2021/11/20 01:41:42;;;;;;;46.28;24.58;;;;;;;6.11;100.00;98006.63;5039441;28;20020;-83
2021/11/20 01:44:15;;;;;;;50.53;25.63;;;;;;;6.12;100.00;98009.19;5039347;28;20043;-84
2021/11/20 01:46:48;;;;;;;55.60;26.38;;;;;;;6.01;100.00;98000.78;5039443;28;20048;-84
2021/11/20 01:49:19;;;;;;;46.60;25.60;;;;;;;6.14;100.00;98006.50;5039492;28;20547;-84
2021/11/20 02:01:00;;;;;;;53.85;27.00;;;;;;;6.07;100.00;98010.31;5099747;28;20043;-94
2021/11/20 02:03:55;;;;;;;61.72;29.00;;;;;;;6.03;100.00;98003.41;5049545;28;20039;-84
2021/11/20 02:06:38;;;;;;;61.40;29.48;;;;;;;6.00;100.00;97988.41;5069134;28;20028;-85
2021/11/20 02:09:06;;;;;;;64.63;33.22;;;;;;;5.96;100.00;97993.00;5043955;28;20499;-83
2021/11/20 02:11:49;;;;;;;75.50;39.42;;;;;;;5.92;100.00;97987.84;5077120;28;20087;-84
2021/11/20 02:14:15;;;;;;;;;;;;;;;5.80;100.00;97982.94;5050339;28;20116;-85
2021/11/20 02:16:59;;;;;;;54.17;27.52;;;;;;;5.72;100.00;97982.38;5044517;28;19912;-83
2021/11/20 02:19:30;;;;;;;56.00;28.70;;;;;;;5.63;100.00;97956.16;5063170;28;20421;-84
2021/11/20 02:22:03;;;;;;;61.25;30.20;;;;;;;5.77;100.00;97981.28;5053022;28;20039;-84
2021/11/20 02:24:28;;;;;;;67.72;31.38;;;;;;;5.77;100.00;97981.28;5058256;28;20038;-83
2021/11/20 02:26:53;;;;;;;63.63;31.02;;;;;;;5.84;100.00;97977.47;5063819;28;20024;-84
2021/11/20 02:29:19;;;;;;;72.82;34.08;;;;;;;5.82;100.00;97963.38;5063600;28;20483;-84
2021/11/20 02:31:52;;;;;;;60.72;29.92;;;;;;;5.82;100.00;97979.31;5038821;28;20024;-84
2021/11/20 02:34:19;;;;;;;51.80;27.75;;;;;;;5.69;100.00;97954.13;5056064;28;20020;-83
2021/11/20 02:36:45;;;;;;;54.42;28.55;;;;;;;5.71;100.00;97959.38;5047193;28;20494;-84
2021/11/20 02:39:18;;;;;;;52.53;27.50;;;;;;;5.70;100.00;97950.56;5070000;28;20034;-83
2021/11/20 02:41:48;;;;;;;56.72;27.40;;;;;;;5.63;100.00;97940.25;5050443;28;22216;-85
2021/11/20 02:44:14;;;;;;;57.20;26.80;;;;;;;5.80;100.00;97948.44;5050197;28;20066;-84
2021/11/20 02:46:44;;;;;;;52.95;28.65;;;;;;;5.73;100.00;97945.13;5056031;28;20114;-85
2021/11/20 02:49:10;;;;;;;51.85;27.75;;;;;;;5.58;100.00;97911.19;5039621;28;20025;-84
2021/11/20 02:51:41;;;;;;;59.00;28.05;;;;;;;5.83;100.00;97948.31;5044996;28;20028;-83
2021/11/20 02:54:21;;;;;;;55.67;27.45;;;;;;;5.92;100.00;97945.38;5058365;28;20031;-83
2021/11/20 02:56:53;;;;;;;46.60;26.13;;;;;;;6.00;100.00;97936.19;5042847;28;20110;-84
2021/11/20 02:59:19;;;;;;;60.05;29.08;;;;;;;6.01;100.00;97934.41;5077769;28;20028;-83
2021/11/20 03:01:46;;;;;;;53.40;27.98;;;;;;;5.94;100.00;97931.09;5054236;28;20031;-83
2021/11/20 03:04:14;;;;;;;55.20;26.83;;;;;;;5.99;100.00;97939.78;5060410;28;20063;-83
2021/11/20 03:06:40;;;;;;;48.63;26.85;;;;;;;6.06;100.00;97939.56;5057581;28;20392;-83
2021/11/20 03:09:07;;;;;;;52.35;27.25;;;;;;;5.97;100.00;97941.59;5044603;28;20098;-84
2021/11/20 03:11:33;;;;;;;54.35;28.63;;;;;;;5.95;100.00;97940.81;5046073;28;20030;-83
2021/11/20 03:14:04;;;;;;;53.42;28.13;;;;;;;5.97;100.00;97924.81;5057993;28;20024;-84
2021/11/20 03:16:32;;;;;;;57.10;27.73;;;;;;;5.87;100.00;97924.31;5074560;28;20032;-85
2021/11/20 03:18:58;;;;;;;49.58;26.33;;;;;;;5.88;100.00;97933.13;5070253;28;20042;-83
2021/11/20 03:21:23;;;;;;;63.33;28.95;;;;;;;5.71;100.00;97909.84;5057428;28;20027;-83
2021/11/20 03:23:52;;;;;;;64.60;27.73;;;;;;;5.86;100.00;97943.81;5084717;28;20025;-85
2021/11/20 03:26:18;;;;;;;52.92;28.90;;;;;;;5.77;100.00;97944.13;5062387;28;20032;-84
2021/11/20 03:28:43;;;;;;;57.72;29.02;;;;;;;5.78;100.00;97948.47;5054082;28;20036;-85
2021/11/20 03:31:09;;;;;;;54.83;29.38;;;;;;;5.67;100.00;97931.22;5066778;28;20028;-84
2021/11/20 03:33:35;;;;;;;60.80;29.83;;;;;;;5.76;100.00;97942.38;5066542;28;20107;-85
2021/11/20 03:36:00;;;;;;;67.35;39.45;;;;;;;5.84;100.00;97961.56;5058112;28;20415;-84
2021/11/20 03:38:27;;;;;;;69.03;31.95;;;;;;;5.78;100.00;97935.22;5062210;28;20020;-84
2021/11/20 03:40:53;;;;;;;56.05;30.42;;;;;;;5.88;100.00;97952.56;5052021;28;20043;-84
2021/11/20 03:43:19;;;;;;;54.40;28.58;;;;;;;5.91;100.00;97955.13;5055668;28;20471;-84
2021/11/20 03:45:45;;;;;;;61.10;30.85;;;;;;;5.92;100.00;97953.34;5065450;28;20505;-84
2021/11/20 03:48:13;;;;;;;57.58;30.88;;;;;;;6.16;100.00;97972.78;5065297;28;20128;-82
2021/11/20 03:50:39;;;;;;;55.88;29.75;;;;;;;6.25;100.00;97977.75;5063977;28;20032;-83
2021/11/20 03:53:05;;;;;;;57.40;29.75;;;;;;;6.39;100.00;97975.44;5065292;28;20056;-83
2021/11/20 03:55:34;;;;;;;56.88;27.58;;;;;;;6.32;100.00;97964.19;5052771;28;20067;-83
2021/11/20 03:58:00;;;;;;;46.65;25.45;;;;;;;6.34;100.00;97966.78;5053679;28;20040;-85
2021/11/20 04:00:28;;;;;;;55.20;25.50;;;;;;;6.29;100.00;97964.31;5035706;28;20514;-83
2021/11/20 04:02:54;;;;;;;41.15;23.23;;;;;;;6.39;100.00;97964.81;5045160;28;20028;-83
2021/11/20 04:05:20;;;;;;;43.42;22.80;;;;;;;6.38;100.00;97971.91;5056063;28;20182;-84
2021/11/20 04:07:47;;;;;;;39.45;23.23;;;;;;;6.37;100.00;97958.69;5073649;28;20024;-83
2021/11/20 04:10:13;;;;;;;41.10;23.13;;;;;;;6.31;100.00;97951.81;5056977;28;20121;-84
2021/11/20 04:12:39;;;;;;;39.40;21.67;;;;;;;6.48;100.00;97964.47;5051920;28;20475;-84
2021/11/20 04:15:07;;;;;;;44.80;22.95;;;;;;;6.45;100.00;97961.94;5061655;28;20082;-84
2021/11/20 04:17:33;;;;;;;48.85;24.02;;;;;;;6.45;100.00;97970.75;5069269;28;20029;-82
2021/11/20 04:19:59;;;;;;;42.75;23.67;;;;;;;6.45;100.00;97964.59;5044739;28;20090;-82
2021/11/20 04:22:25;;;;;;;43.30;22.95;;;;;;;6.55;100.00;97972.13;5061455;28;20028;-83
2021/11/20 04:24:50;;;;;;;45.53;24.02;;;;;;;6.44;100.00;97958.41;5042694;28;20020;-85
2021/11/20 04:27:16;;;;;;;49.00;25.98;;;;;;;6.43;100.00;97951.34;5038633;28;20090;-84
2021/11/20 04:29:42;;;;;;;53.78;27.25;;;;;;;6.46;100.00;97951.22;5053346;28;20032;-84
2021/11/20 04:32:08;;;;;;;58.33;31.20;;;;;;;6.42;100.00;97954.94;5061470;28;20039;-84
2021/11/20 04:34:34;;;;;;;59.88;27.70;;;;;;;6.50;100.00;97970.56;5069843;28;20021;-83
2021/11/20 04:36:59;;;;;;;55.65;27.38;;;;;;;6.46;100.00;97955.69;5036567;28;20197;-83
2021/11/20 04:39:25;;;;;;;58.58;27.67;;;;;;;6.36;100.00;97946.34;5055164;28;20029;-83
2021/11/20 04:41:51;;;;;;;57.65;30.45;;;;;;;6.34;100.00;97929.56;5042570;28;20016;-83
2021/11/20 04:44:19;;;;;;;58.30;32.17;;;;;;;6.53;100.00;97955.38;5044480;28;20034;-83
2021/11/20 04:46:45;;;;;;;64.97;32.60;;;;;;;6.44;100.00;97930.97;5056756;28;20052;-83
2021/11/20 04:49:10;;;;;;;67.22;34.42;;;;;;;6.50;100.00;97928.06;5065292;28;20056;-82
2021/11/20 04:51:36;;;;;;;71.78;35.63;;;;;;;6.43;100.00;97902.66;5040847;28;20020;-83
2021/11/20 04:54:03;;;;;;;77.43;38.83;;;;;;;6.33;100.00;97890.69;5056987;28;20033;-83
2021/11/20 04:56:28;;;;;;;82.75;40.10;;;;;;;6.27;100.00;97890.91;5058744;28;20102;-83
2021/11/20 04:58:54;;;;;;;69.80;36.33;;;;;;;6.22;100.00;97914.13;5060289;28;20041;-83
2021/11/20 05:01:21;;;;;;;62.78;32.97;;;;;;;5.97;100.00;97915.06;5059337;28;20028;-84
2021/11/20 05:03:50;;;;;;;76.30;34.08;;;;;;;5.73;100.00;97915.06;5053824;28;20052;-84
2021/11/20 05:06:18;;;;;;;64.43;33.63;;;;;;;5.52;100.00;97884.91;5052130;28;20024;-85
2021/11/20 05:08:44;;;;;;;63.00;33.10;;;;;;;5.59;100.00;97898.81;5051985;28;20036;-84
2021/11/20 05:11:11;;;;;;;63.47;33.10;;;;;;;5.56;100.00;97898.91;5043984;28;20093;-83
2021/11/20 05:13:37;;;;;;;72.55;34.83;;;;;;;5.45;100.00;97902.81;5048602;28;20037;-83
2021/11/20 05:16:03;;;;;;;63.08;31.73;;;;;;;5.47;100.00;97929.31;5040317;28;20028;-84
2021/11/20 05:18:30;;;;;;;65.65;33.53;;;;;;;5.24;100.00;97934.53;5075153;28;20407;-84
2021/11/20 05:20:59;;;;;;;68.80;32.95;;;;;;;5.19;100.00;97933.84;5046467;28;20450;-84
2021/11/20 05:23:28;;;;;;;67.70;31.85;;;;;;;5.21;100.00;97950.56;5040080;28;20031;-83
2021/11/20 05:25:54;;;;;;;75.25;38.58;;;;;;;5.09;100.00;97940.38;5048955;28;20017;-81
2021/11/20 05:28:19;;;;;;;75.88;38.63;;;;;;;5.11;100.00;97941.16;5041994;28;20127;-84
2021/11/20 05:30:47;;;;;;;70.15;36.97;;;;;;;5.30;100.00;97952.88;5051683;28;20028;-84
2021/11/20 05:33:20;;;;;;;86.32;43.25;;;;;;;5.40;100.00;97941.03;5053918;28;20101;-85
2021/11/20 05:35:47;;;;;;;82.35;42.30;;;;;;;5.51;100.00;97944.16;5064612;28;20024;-84
2021/11/20 05:38:13;;;;;;;81.55;44.08;;;;;;;5.59;100.00;97933.28;5058551;28;20066;-84
2021/11/20 05:40:39;;;;;;;90.15;43.85;;;;;;;5.61;100.00;97923.47;5068238;28;20518;-84
2021/11/20 05:43:08;;;;;;;101.63;49.75;;;;;;;5.72;100.00;97938.09;5062304;28;20035;-83
2021/11/20 05:45:37;;;;;;;87.88;42.05;;;;;;;5.77;100.00;97935.28;5070029;28;20414;-84
2021/11/20 05:48:03;;;;;;;76.10;36.90;;;;;;;5.67;100.00;97924.13;5041387;28;20036;-84
2021/11/20 05:50:29;;;;;;;68.63;35.03;;;;;;;5.80;100.00;97945.78;5039324;28;20513;-85
2021/11/20 05:52:56;;;;;;;54.17;29.27;;;;;;;5.85;100.00;97944.72;5039516;28;20036;-85
2021/11/20 05:55:25;;;;;;;50.13;26.35;;;;;;;6.04;100.00;97958.19;5080851;28;20425;-85
2021/11/20 05:57:50;;;;;;;58.88;29.88;;;;;;;5.83;100.00;97927.09;5046176;28;20044;-85
2021/11/20 06:00:19;;;;;;;79.82;36.35;;;;;;;5.99;100.00;97963.69;5054267;28;20040;-85
2021/11/20 06:02:45;;;;;;;72.07;35.72;;;;;;;5.87;100.00;97956.16;5086069;28;20027;-85
2021/11/20 06:05:10;;;;;;;91.95;44.15;;;;;;;5.78;100.00;97956.44;5072159;28;20028;-84
2021/11/20 06:07:36;;;;;;;130.13;64.22;;;;;;;5.64;100.00;97974.66;5068386;28;20032;-84
2021/11/20 06:10:04;;;;;;;109.53;53.80;;;;;;;5.65;100.00;97980.84;5047677;28;20433;-80
2021/11/20 06:12:29;;;;;;;90.45;46.20;;;;;;;5.69;100.00;97983.31;5072377;28;20086;-87
2021/11/20 06:14:55;;;;;;;108.20;53.10;;;;;;;5.74;100.00;97978.72;5064771;28;20471;-85
2021/11/20 06:17:20;;;;;;;111.35;50.42;;;;;;;5.79;100.00;97979.41;5055413;28;20094;-85
2021/11/20 06:19:46;;;;;;;101.40;49.88;;;;;;;5.98;100.00;97984.97;5070387;28;20110;-84
2021/11/20 06:22:12;;;;;;;93.53;44.42;;;;;;;5.60;100.00;97951.81;5043552;28;20029;-84
2021/11/20 06:24:37;;;;;;;107.03;52.92;;;;;;;5.84;100.00;97964.22;5056011;28;20020;-84
2021/11/20 06:27:03;;;;;;;109.13;53.80;;;;;;;5.90;100.00;97968.47;5063496;28;20043;-83
2021/11/20 06:29:31;;;;;;;104.30;50.78;;;;;;;5.92;100.00;97966.59;5042393;28;20031;-83
2021/11/20 06:31:57;;;;;;;88.53;47.45;;;;;;;6.05;100.00;97977.63;5067815;28;20028;-84
2021/11/20 06:34:23;;;;;;;145.25;76.35;;;;;;;6.02;100.00;97951.19;5049547;28;20059;-84
2021/11/20 06:36:49;;;;;;;94.00;46.53;;;;;;;6.07;100.00;97966.03;5060917;28;20021;-84
2021/11/20 06:39:15;;;;;;;129.15;67.53;;;;;;;5.98;100.00;97938.03;5047143;28;20533;-85
2021/11/20 06:41:41;;;;;;;78.57;41.13;;;;;;;6.13;100.00;97954.31;5063722;28;20032;-84
2021/11/20 06:44:07;;;;;;;95.90;46.15;;;;;;;5.92;100.00;97938.28;5062995;28;20040;-85
2021/11/20 06:46:33;;;;;;;70.70;36.97;;;;;;;5.90;100.00;97956.06;5062992;28;20090;-85
2021/11/20 06:49:00;;;;;;;73.15;40.40;;;;;;;5.63;100.00;97935.78;5038442;28;20031;-84
2021/11/20 06:51:26;;;;;;;93.32;47.17;;;;;;;5.74;100.00;97944.22;5063246;28;20775;-84
2021/11/20 06:53:51;;;;;;;96.35;50.50;;;;;;;5.94;100.00;97949.69;5052924;28;20027;-84
2021/11/20 06:57:05;;;;;;;107.03;55.92;;;;;;;6.07;100.00;97955.41;5065981;28;20020;-84
2021/11/20 07:01:49;;;;;;;97.88;50.05;;;;;;;6.20;100.00;97915.97;5083557;28;20036;-92
2021/11/20 07:04:22;;;;;;;100.13;50.72;;;;;;;6.24;100.00;97926.44;5060640;28;20031;-94
2021/11/20 07:06:49;;;;;;;105.20;54.00;;;;;;;6.35;100.00;97939.28;5060716;28;20031;-93
2021/11/20 07:09:16;;;;;;;108.00;54.25;;;;;;;6.33;100.00;97919.91;5058792;28;20170;-93
2021/11/20 07:11:42;;;;;;;103.47;51.78;;;;;;;6.69;100.00;97930.84;5063032;28;20039;-93
2021/11/20 07:14:08;;;;;;;133.15;62.50;;;;;;;6.92;100.00;97928.13;5055754;28;20038;-86
2021/11/20 07:16:34;;;;;;;293.75;145.88;;;;;;;7.34;100.00;97957.38;5074866;28;20037;-92
2021/11/20 07:22:22;;;;;;;83.70;40.15;;;;;;;7.42;100.00;97900.22;5074036;28;20055;-89
2021/11/20 07:24:48;;;;;;;84.50;44.78;;;;;;;7.27;100.00;97939.94;5055575;28;20063;-89
2021/11/20 07:27:14;;;;;;;98.93;48.53;;;;;;;7.16;100.00;97920.91;5079761;28;20048;-86
2021/11/20 07:29:39;;;;;;;88.53;44.58;;;;;;;7.08;100.00;97903.47;5053118;28;20032;-89
2021/11/20 07:32:07;;;;;;;86.15;42.92;;;;;;;7.57;100.00;97931.50;5064848;28;20032;-89
2021/11/20 07:34:33;;;;;;;83.28;41.38;;;;;;;7.74;100.00;97933.41;5055055;28;20510;-90
2021/11/20 07:37:02;;;;;;;82.97;44.63;;;;;;;7.97;97.88;97917.25;5049126;28;20490;-90
2021/11/20 07:39:28;;;;;;;96.47;52.67;;;;;;;8.06;96.61;97924.81;5081424;28;20028;-88
2021/11/20 07:42:30;;;;;;;109.68;58.47;;;;;;;8.26;97.98;97952.34;5075621;28;20137;-92
2021/11/20 07:45:01;;;;;;;135.32;65.82;;;;;;;8.24;96.47;97936.44;5023870;28;20028;-95
2021/11/20 07:47:28;;;;;;;125.03;64.38;;;;;;;7.66;97.51;97876.97;5150109;22;20023;-95
2021/11/20 07:50:18;;;;;;;123.10;61.47;;;;;;;8.13;98.52;97966.25;5051658;28;20068;-90
2021/11/20 07:52:47;;;;;;;112.18;55.53;;;;;;;8.32;96.96;97934.31;5045746;28;20471;-92
2021/11/20 07:55:15;;;;;;;100.93;49.00;;;;;;;8.29;95.74;97933.59;5046567;28;20039;-92
2021/11/20 07:57:40;;;;;;;91.07;45.92;;;;;;;8.53;95.55;97959.09;5036558;28;20036;-81
2021/11/20 08:00:16;;;;;;;78.70;41.05;;;;;;;8.84;92.38;97953.16;5035221;28;20070;-81
2021/11/20 08:02:41;;;;;;;92.50;47.53;;;;;;;8.78;90.51;97954.31;5037459;28;20073;-83
2021/11/20 08:05:08;;;;;;;99.95;51.55;;;;;;;8.93;90.54;97958.91;5036501;28;20115;-83
2021/11/20 08:07:36;;;;;;;106.13;55.30;;;;;;;8.83;91.24;97962.97;5035092;28;20654;-82
2021/11/20 08:10:04;;;;;;;127.65;67.10;;;;;;;8.90;90.32;97958.19;5035792;28;20407;-83
2021/11/20 08:12:30;;;;;;;116.63;63.13;;;;;;;9.32;88.26;97971.25;5034700;28;20027;-82
2021/11/20 08:14:55;;;;;;;120.32;63.33;;;;;;;9.56;85.73;97967.31;5052779;28;20028;-81
2021/11/20 08:17:21;;;;;;;110.20;61.10;;;;;;;9.24;86.31;97948.47;5052403;28;20036;-83
2021/11/20 08:19:46;;;;;;;139.18;73.97;;;;;;;8.94;88.52;97941.13;5038978;28;20025;-82
2021/11/20 08:22:12;;;;;;;116.55;62.20;;;;;;;8.74;90.94;97949.22;5035688;28;20056;-84
2021/11/20 08:24:38;;;;;;;138.20;70.30;;;;;;;8.65;91.92;97958.50;5052954;28;20092;-84
2021/11/20 08:27:07;;;;;;;139.07;71.97;;;;;;;8.49;93.96;97957.53;5053229;28;20024;-85
2021/11/20 08:29:37;;;;;;;125.93;70.03;;;;;;;8.55;94.34;97967.91;5036025;28;20406;-83
2021/11/20 08:32:07;;;;;;;120.30;64.18;;;;;;;8.79;95.77;97964.06;5035116;28;20137;-82
2021/11/20 08:34:33;;;;;;;147.90;82.15;;;;;;;10.12;86.59;97965.19;5031193;28;20111;-81
2021/11/20 08:37:08;;;;;;;105.20;61.10;;;;;;;11.34;79.06;97959.25;5034541;28;20107;-81
2021/11/20 08:39:34;;;;;;;116.95;60.20;;;;;;;12.61;70.66;97955.97;5054267;28;20078;-82
2021/11/20 08:42:01;;;;;;;125.07;69.38;;;;;;;13.32;66.41;97962.06;5051320;28;20028;-83
2021/11/20 08:44:27;;;;;;;120.05;64.20;;;;;;;13.14;66.28;97953.38;5034055;28;20534;-83
2021/11/20 08:46:53;;;;;;;212.73;126.82;;;;;;;12.60;68.65;97965.81;5033970;28;20052;-83
2021/11/20 08:49:19;;;;;;;123.05;67.55;;;;;;;12.86;67.11;97967.69;5031012;28;20052;-83
2021/11/20 08:51:46;;;;;;;126.70;68.53;;;;;;;13.54;64.78;97955.13;5030936;28;20036;-82
2021/11/20 08:54:12;;;;;;;120.88;68.95;;;;;;;13.96;61.85;97953.19;5026604;28;20021;-93
2021/11/20 08:56:40;;;;;;;109.32;65.05;;;;;;;14.73;59.52;97960.28;5044048;28;20120;-93
2021/11/20 08:59:08;;;;;;;115.50;66.03;;;;;;;16.05;55.37;97935.03;5044203;28;20081;-91
2021/11/20 09:01:38;;;;;;;106.15;62.00;;;;;;;17.40;50.82;97919.53;5061331;28;20461;-92
2021/11/20 09:04:19;;;;;;;90.15;54.65;;;;;;;18.16;47.26;97916.59;5058075;28;20031;-90
2021/11/20 09:06:51;;;;;;;70.55;45.35;;;;;;;17.43;48.33;97915.69;5041831;28;20072;-91
2021/11/20 09:09:27;;;;;;;75.43;47.58;;;;;;;16.58;50.54;97920.88;5045683;28;20094;-91
2021/11/20 09:11:57;;;;;;;67.32;38.75;;;;;;;15.77;52.37;97935.44;5057036;28;20131;-92
2021/11/20 09:14:32;;;;;;;65.50;39.17;;;;;;;14.95;54.77;97920.06;5052945;28;20033;-92
2021/11/20 09:16:59;;;;;;;62.78;37.30;;;;;;;14.42;56.71;97927.50;5035041;28;20021;-84
2021/11/20 09:19:27;;;;;;;64.13;37.75;;;;;;;13.86;58.41;97927.88;5031407;28;20408;-84
2021/11/20 09:21:53;;;;;;;79.28;39.17;;;;;;;13.06;61.61;97926.13;5014856;28;20409;-83
2021/11/20 09:24:19;;;;;;;74.97;37.60;;;;;;;12.81;63.62;97931.38;5047669;28;20029;-83
2021/11/20 09:26:44;;;;;;;58.45;33.05;;;;;;;12.45;65.51;97926.53;5031186;28;20048;-83
2021/11/20 09:29:13;;;;;;;68.72;35.42;;;;;;;12.46;65.16;97920.19;5014122;28;20427;-83
2021/11/20 09:31:41;;;;;;;56.17;33.33;;;;;;;12.03;67.41;97922.03;5015451;28;20476;-84
2021/11/20 09:34:07;;;;;;;76.32;41.75;;;;;;;11.70;70.11;97922.28;5067398;28;20522;-84
2021/11/20 09:36:34;;;;;;;74.93;39.72;;;;;;;11.63;71.95;97915.53;5020827;28;20035;-88
2021/11/20 09:39:00;;;;;;;59.13;31.75;;;;;;;12.19;69.65;97909.41;5037582;28;20112;-88
2021/11/20 09:42:03;;;;;;;54.08;29.48;;;;;;;14.36;61.88;97910.91;5019959;28;20141;-83
2021/11/20 09:44:34;;;;;;;39.25;23.60;;;;;;;14.97;58.62;97901.94;5050946;28;20041;-84
2021/11/20 09:47:29;;;;;;;35.85;20.60;;;;;;;14.59;58.58;97910.97;5051347;28;20040;-85
2021/11/20 09:50:03;;;;;;;30.35;16.27;;;;;;;14.60;59.11;97907.34;5026601;28;20061;-89
2021/11/20 09:52:29;;;;;;;34.95;19.48;;;;;;;15.48;56.55;97889.97;5036188;28;20457;-90
2021/11/20 09:54:55;;;;;;;40.45;19.50;;;;;;;15.80;55.32;97878.56;5015680;28;20067;-81
2021/11/20 09:57:27;;;;;;;38.55;20.92;;;;;;;16.52;52.74;97880.81;5013866;28;20033;-82
2021/11/20 09:59:55;;;;;;;;;;;;;;;17.23;50.79;97874.06;5014251;28;20116;-81
2021/11/20 10:02:32;;;;;;;31.30;12.20;;;;;;;18.16;47.65;97872.41;5014315;28;19917;-83
2021/11/20 10:05:07;;;;;;;20.20;9.57;;;;;;;18.22;47.04;97871.84;5006993;28;20497;-82
2021/11/20 10:07:34;;;;;;;14.73;8.82;;;;;;;18.18;46.62;97875.84;5030194;28;20033;-82
2021/11/20 10:10:04;;;;;;;13.40;9.18;;;;;;;18.10;46.68;97872.94;5029965;28;20470;-82
2021/11/20 10:12:45;;;;;;;9.68;6.63;;;;;;;17.86;46.77;97874.09;5030651;28;20053;-81
2021/11/20 10:15:22;;;;;;;10.43;7.70;;;;;;;17.15;48.83;97874.72;5013260;28;20431;-82
2021/11/20 10:18:04;;;;;;;15.00;9.45;;;;;;;17.34;47.85;97855.13;5013309;28;20116;-82
2021/11/20 10:24:36;;;;;;;12.40;8.45;;;;;;;16.80;50.05;97849.75;5039248;28;20165;-89
2021/11/20 10:27:30;;;;;;;9.68;6.25;;;;;;;17.39;48.39;97843.91;5031935;28;20033;-89
2021/11/20 10:30:10;;;;;;;10.30;7.30;;;;;;;18.11;46.96;97836.75;5037142;28;20041;-88
2021/11/20 10:32:41;;;;;;;17.65;10.20;;;;;;;18.47;46.04;97805.53;5009394;28;20033;-88
2021/11/20 10:35:15;;;;;;;13.75;7.82;;;;;;;18.39;46.50;97825.19;5002574;28;20155;-87
2021/11/20 10:47:55;;;;;;;16.88;8.98;;;;;;;18.10;47.95;97818.78;5031919;28;20068;-89
2021/11/20 10:50:44;;;;;;;14.07;9.68;;;;;;;18.03;48.07;97817.59;5062773;28;20391;-89
2021/11/20 10:53:45;;;;;;;16.33;11.40;;;;;;;18.01;48.53;97825.00;5045287;28;20032;-88
2021/11/20 10:56:20;;;;;;;18.15;10.95;;;;;;;18.43;47.03;97816.66;4961732;28;20054;-89
2021/11/20 10:59:09;;;;;;;19.38;12.55;;;;;;;18.58;47.05;97817.16;5047486;28;20404;-89
2021/11/20 11:02:07;;;;;;;21.92;13.05;;;;;;;18.67;47.20;97815.50;5084496;28;20052;-89
2021/11/20 11:11:47;;;;;;;24.27;14.02;;;;;;;18.39;47.46;97819.78;5060696;28;20072;-91
2021/11/20 11:14:41;;;;;;;23.38;11.02;;;;;;;17.82;47.37;97761.66;5027063;28;20033;-89
2021/11/20 11:17:22;;;;;;;18.77;10.43;;;;;;;17.94;48.38;97815.69;5047870;28;20418;-90
2021/11/20 11:19:54;;;;;;;16.17;10.10;;;;;;;18.55;46.48;97789.50;5061670;28;20083;-90
2021/11/20 11:22:44;;;;;;;44.85;27.63;;;;;;;17.96;47.79;97794.78;5044113;28;20085;-90
2021/11/20 11:25:19;;;;;;;15.68;9.35;;;;;;;18.23;47.19;97804.03;5062456;28;20494;-90
2021/11/20 11:28:13;;;;;;;28.02;14.95;;;;;;;19.15;45.17;97791.16;5076985;28;20077;-89
2021/11/20 11:31:04;;;;;;;22.77;11.75;;;;;;;19.81;43.81;97784.81;5028751;28;20032;-89
2021/11/20 11:40:53;;;;;;;43.85;23.83;;;;;;;20.45;42.87;97784.94;5079006;28;20096;-89
2021/11/20 11:43:26;;;;;;;34.10;21.45;;;;;;;21.38;40.96;97784.59;5041451;28;20032;-89
2021/11/20 11:46:08;;;;;;;13.38;8.00;;;;;;;21.15;39.97;97742.56;5046943;28;20043;-89
2021/11/20 11:48:56;;;;;;;16.05;7.97;;;;;;;21.10;40.16;97774.84;5034607;28;20571;-89
2021/11/20 12:08:24;;;;;;;39.92;25.00;;;;;;;17.93;47.11;97790.50;5057433;28;20039;-90
2021/11/20 12:10:54;;;;;;;23.65;14.57;;;;;;;17.70;47.75;97787.09;5055741;28;20408;-90
2021/11/20 12:13:33;;;;;;;27.15;15.55;;;;;;;17.57;48.66;97774.75;5035684;28;20075;-90
2021/11/20 12:20:19;;;;;;;10.93;6.05;;;;;;;17.17;49.27;97770.00;5069350;28;20101;-90
2021/11/20 12:23:00;;;;;;;12.55;7.43;;;;;;;16.80;50.23;97752.47;5035029;28;20412;-89
2021/11/20 12:25:42;;;;;;;10.82;6.45;;;;;;;16.62;50.77;97765.69;5041413;28;20037;-90
2021/11/20 12:28:13;;;;;;;14.38;9.40;;;;;;;16.46;51.26;97746.28;5058915;28;20127;-90
2021/11/20 12:30:59;;;;;;;12.65;8.15;;;;;;;16.43;51.50;97756.47;5040566;28;20032;-89
2021/11/20 12:33:34;;;;;;;16.23;10.38;;;;;;;16.37;52.08;97748.88;5057014;28;20037;-90